sensor_id;sensor_type;location;lat;lon;timestamp;temperature;humidity
36800;DHT22;22752;51.960;5.886;2023-10-13T00:01:20;17.40;99.90
36800;DHT22;22752;51.960;5.886;2023-10-13T00:03:46;17.40;99.90
36800;DHT22;22752;51.960;5.886;2023-10-13T00:06:12;17.30;99.90
36800;DHT22;22752;51.960;5.886;2023-10-13T00:08:37;17.40;99.90
36800;DHT22;22752;51.960;5.886;2023-10-13T00:11:05;17.30;99.90
36800;DHT22;22752;51.960;5.886;2023-10-13T00:13:31;17.40;99.90
36800;DHT22;22752;51.960;5.886;2023-10-13T00:16:15;17.40;99.90
36800;DHT22;22752;51.960;5.886;2023-10-13T00:18:47;17.40;99.90
36800;DHT22;22752;51.960;5.886;2023-10-13T00:21:14;17.40;99.90
36800;DHT22;22752;51.960;5.886;2023-10-13T00:23:57;17.40;99.90
36800;DHT22;22752;51.960;5.886;2023-10-13T00:26:28;17.40;99.90
36800;DHT22;22752;51.960;5.886;2023-10-13T00:28:58;17.30;99.90
36800;DHT22;22752;51.960;5.886;2023-10-13T00:31:37;17.40;99.90
36800;DHT22;22752;51.960;5.886;2023-10-13T00:34:04;17.40;99.90
36800;DHT22;22752;51.960;5.886;2023-10-13T00:36:45;17.40;99.90
36800;DHT22;22752;51.960;5.886;2023-10-13T00:39:34;17.40;99.90
36800;DHT22;22752;51.960;5.886;2023-10-13T00:42:05;17.30;99.90
36800;DHT22;22752;51.960;5.886;2023-10-13T00:44:43;17.30;99.90
36800;DHT22;22752;51.960;5.886;2023-10-13T00:47:13;17.40;99.90
36800;DHT22;22752;51.960;5.886;2023-10-13T00:49:46;17.30;99.90
36800;DHT22;22752;51.960;5.886;2023-10-13T00:52:13;17.30;99.90
36800;DHT22;22752;51.960;5.886;2023-10-13T00:54:42;17.30;99.90
36800;DHT22;22752;51.960;5.886;2023-10-13T00:57:13;17.40;99.90
36800;DHT22;22752;51.960;5.886;2023-10-13T00:59:56;17.40;99.90
36800;DHT22;22752;51.960;5.886;2023-10-13T01:02:23;17.40;99.90
36800;DHT22;22752;51.960;5.886;2023-10-13T01:05:07;17.40;99.90
36800;DHT22;22752;51.960;5.886;2023-10-13T01:07:42;17.40;99.90
36800;DHT22;22752;51.960;5.886;2023-10-13T01:10:11;17.40;99.90
36800;DHT22;22752;51.960;5.886;2023-10-13T01:12:39;17.40;99.90
36800;DHT22;22752;51.960;5.886;2023-10-13T01:15:09;17.30;99.90
36800;DHT22;22752;51.960;5.886;2023-10-13T01:17:36;17.30;99.90
36800;DHT22;22752;51.960;5.886;2023-10-13T01:20:03;17.40;99.90
36800;DHT22;22752;51.960;5.886;2023-10-13T01:22:30;17.40;99.90
36800;DHT22;22752;51.960;5.886;2023-10-13T01:24:57;17.40;99.90
36800;DHT22;22752;51.960;5.886;2023-10-13T01:27:30;17.40;99.90
36800;DHT22;22752;51.960;5.886;2023-10-13T01:29:56;17.40;99.90
36800;DHT22;22752;51.960;5.886;2023-10-13T01:32:29;17.40;99.90
36800;DHT22;22752;51.960;5.886;2023-10-13T01:34:55;17.40;99.90
36800;DHT22;22752;51.960;5.886;2023-10-13T01:37:21;17.40;99.90
36800;DHT22;22752;51.960;5.886;2023-10-13T01:39:47;17.40;99.90
36800;DHT22;22752;51.960;5.886;2023-10-13T01:42:15;17.40;99.90
36800;DHT22;22752;51.960;5.886;2023-10-13T01:44:47;17.40;99.90
36800;DHT22;22752;51.960;5.886;2023-10-13T01:47:13;17.40;99.90
36800;DHT22;22752;51.960;5.886;2023-10-13T01:49:38;17.40;99.90
36800;DHT22;22752;51.960;5.886;2023-10-13T01:52:10;17.40;99.90
36800;DHT22;22752;51.960;5.886;2023-10-13T01:54:37;17.40;99.90
36800;DHT22;22752;51.960;5.886;2023-10-13T01:57:09;17.30;99.90
36800;DHT22;22752;51.960;5.886;2023-10-13T01:59:48;17.30;99.90
36800;DHT22;22752;51.960;5.886;2023-10-13T02:02:14;17.30;99.90
36800;DHT22;22752;51.960;5.886;2023-10-13T02:04:41;17.30;99.90
36800;DHT22;22752;51.960;5.886;2023-10-13T02:07:08;17.30;99.90
36800;DHT22;22752;51.960;5.886;2023-10-13T02:09:34;17.30;99.90
36800;DHT22;22752;51.960;5.886;2023-10-13T02:12:02;17.30;99.90
36800;DHT22;22752;51.960;5.886;2023-10-13T02:14:28;17.30;99.90
36800;DHT22;22752;51.960;5.886;2023-10-13T02:16:53;17.30;99.90
36800;DHT22;22752;51.960;5.886;2023-10-13T02:19:37;17.30;99.90
36800;DHT22;22752;51.960;5.886;2023-10-13T02:22:06;17.30;99.90
36800;DHT22;22752;51.960;5.886;2023-10-13T02:24:34;17.30;99.90
36800;DHT22;22752;51.960;5.886;2023-10-13T02:26:59;17.30;99.90
36800;DHT22;22752;51.960;5.886;2023-10-13T02:29:30;17.30;99.90
36800;DHT22;22752;51.960;5.886;2023-10-13T02:31:55;17.30;99.90
36800;DHT22;22752;51.960;5.886;2023-10-13T02:34:22;17.30;99.90
36800;DHT22;22752;51.960;5.886;2023-10-13T02:36:49;17.30;99.90
36800;DHT22;22752;51.960;5.886;2023-10-13T02:39:18;17.30;99.90
36800;DHT22;22752;51.960;5.886;2023-10-13T02:41:51;17.30;99.90
36800;DHT22;22752;51.960;5.886;2023-10-13T02:44:18;17.30;99.90
36800;DHT22;22752;51.960;5.886;2023-10-13T02:46:56;17.30;99.90
36800;DHT22;22752;51.960;5.886;2023-10-13T02:49:29;17.30;99.90
36800;DHT22;22752;51.960;5.886;2023-10-13T02:52:02;17.30;99.90
36800;DHT22;22752;51.960;5.886;2023-10-13T02:54:34;17.20;99.90
36800;DHT22;22752;51.960;5.886;2023-10-13T02:57:07;17.20;99.90
36800;DHT22;22752;51.960;5.886;2023-10-13T02:59:33;17.20;99.90
36800;DHT22;22752;51.960;5.886;2023-10-13T03:02:14;17.20;99.90
36800;DHT22;22752;51.960;5.886;2023-10-13T03:04:53;17.20;99.90
36800;DHT22;22752;51.960;5.886;2023-10-13T03:07:27;17.20;99.90
36800;DHT22;22752;51.960;5.886;2023-10-13T03:09:57;17.20;99.90
36800;DHT22;22752;51.960;5.886;2023-10-13T03:12:38;17.20;99.90
36800;DHT22;22752;51.960;5.886;2023-10-13T03:15:05;17.20;99.90
36800;DHT22;22752;51.960;5.886;2023-10-13T03:17:40;17.20;99.90
36800;DHT22;22752;51.960;5.886;2023-10-13T03:20:18;17.20;99.90
36800;DHT22;22752;51.960;5.886;2023-10-13T03:22:52;17.20;99.90
36800;DHT22;22752;51.960;5.886;2023-10-13T03:25:18;17.20;99.90
36800;DHT22;22752;51.960;5.886;2023-10-13T03:27:55;17.20;99.90
36800;DHT22;22752;51.960;5.886;2023-10-13T03:30:21;17.20;99.90
36800;DHT22;22752;51.960;5.886;2023-10-13T03:32:54;17.20;99.90
36800;DHT22;22752;51.960;5.886;2023-10-13T03:35:21;17.20;99.90
36800;DHT22;22752;51.960;5.886;2023-10-13T03:37:53;17.20;99.90
36800;DHT22;22752;51.960;5.886;2023-10-13T03:40:20;17.20;99.90
36800;DHT22;22752;51.960;5.886;2023-10-13T03:45:40;17.20;99.90
36800;DHT22;22752;51.960;5.886;2023-10-13T03:48:12;17.20;99.90
36800;DHT22;22752;51.960;5.886;2023-10-13T03:50:53;17.20;99.90
36800;DHT22;22752;51.960;5.886;2023-10-13T03:53:36;17.30;99.90
36800;DHT22;22752;51.960;5.886;2023-10-13T03:56:03;17.30;99.90
36800;DHT22;22752;51.960;5.886;2023-10-13T03:58:41;17.30;99.90
36800;DHT22;22752;51.960;5.886;2023-10-13T04:01:19;17.20;99.90
36800;DHT22;22752;51.960;5.886;2023-10-13T04:03:50;17.20;99.90
36800;DHT22;22752;51.960;5.886;2023-10-13T04:06:36;17.20;99.90
36800;DHT22;22752;51.960;5.886;2023-10-13T04:12:02;17.30;99.90
36800;DHT22;22752;51.960;5.886;2023-10-13T04:14:32;17.20;99.90
36800;DHT22;22752;51.960;5.886;2023-10-13T04:17:16;17.20;99.90
36800;DHT22;22752;51.960;5.886;2023-10-13T04:19:49;17.30;99.90
36800;DHT22;22752;51.960;5.886;2023-10-13T04:22:34;17.30;99.90
36800;DHT22;22752;51.960;5.886;2023-10-13T04:33:27;17.20;99.90
36800;DHT22;22752;51.960;5.886;2023-10-13T04:36:13;17.30;99.90
36800;DHT22;22752;51.960;5.886;2023-10-13T04:38:49;17.30;99.90
36800;DHT22;22752;51.960;5.886;2023-10-13T04:41:40;17.30;99.90
36800;DHT22;22752;51.960;5.886;2023-10-13T04:44:23;17.30;99.90
36800;DHT22;22752;51.960;5.886;2023-10-13T04:46:50;17.20;99.90
36800;DHT22;22752;51.960;5.886;2023-10-13T04:49:16;17.20;99.90
36800;DHT22;22752;51.960;5.886;2023-10-13T04:51:59;17.30;99.90
36800;DHT22;22752;51.960;5.886;2023-10-13T04:54:27;17.30;99.90
36800;DHT22;22752;51.960;5.886;2023-10-13T04:57:14;17.30;99.90
36800;DHT22;22752;51.960;5.886;2023-10-13T04:59:52;17.30;99.90
36800;DHT22;22752;51.960;5.886;2023-10-13T05:02:56;17.40;99.90
36800;DHT22;22752;51.960;5.886;2023-10-13T05:05:42;17.40;99.90
36800;DHT22;22752;51.960;5.886;2023-10-13T05:08:27;17.40;99.90
36800;DHT22;22752;51.960;5.886;2023-10-13T05:11:11;17.40;99.90
36800;DHT22;22752;51.960;5.886;2023-10-13T05:13:55;17.50;99.90
36800;DHT22;22752;51.960;5.886;2023-10-13T05:16:39;17.60;99.90
36800;DHT22;22752;51.960;5.886;2023-10-13T05:19:23;17.60;99.90
36800;DHT22;22752;51.960;5.886;2023-10-13T05:22:07;17.60;99.90
36800;DHT22;22752;51.960;5.886;2023-10-13T05:24:51;17.70;99.90
36800;DHT22;22752;51.960;5.886;2023-10-13T05:27:35;17.70;99.90
36800;DHT22;22752;51.960;5.886;2023-10-13T05:30:19;17.80;99.90
36800;DHT22;22752;51.960;5.886;2023-10-13T05:33:06;17.90;99.90
36800;DHT22;22752;51.960;5.886;2023-10-13T05:35:50;17.90;99.90
36800;DHT22;22752;51.960;5.886;2023-10-13T05:38:34;17.90;99.90
36800;DHT22;22752;51.960;5.886;2023-10-13T05:41:20;17.90;99.90
36800;DHT22;22752;51.960;5.886;2023-10-13T05:44:04;17.90;99.90
36800;DHT22;22752;51.960;5.886;2023-10-13T05:46:48;18.00;99.90
36800;DHT22;22752;51.960;5.886;2023-10-13T05:49:15;18.00;99.90
36800;DHT22;22752;51.960;5.886;2023-10-13T05:51:40;18.00;99.90
36800;DHT22;22752;51.960;5.886;2023-10-13T05:54:13;18.00;99.90
36800;DHT22;22752;51.960;5.886;2023-10-13T05:56:46;18.00;99.90
36800;DHT22;22752;51.960;5.886;2023-10-13T05:59:31;18.00;99.90
36800;DHT22;22752;51.960;5.886;2023-10-13T06:02:17;18.00;99.90
36800;DHT22;22752;51.960;5.886;2023-10-13T06:05:02;18.00;99.90
36800;DHT22;22752;51.960;5.886;2023-10-13T06:07:46;18.00;99.90
36800;DHT22;22752;51.960;5.886;2023-10-13T06:10:31;18.00;99.90
36800;DHT22;22752;51.960;5.886;2023-10-13T06:13:14;18.00;99.90
36800;DHT22;22752;51.960;5.886;2023-10-13T06:15:58;18.00;99.90
36800;DHT22;22752;51.960;5.886;2023-10-13T06:18:42;18.00;99.90
36800;DHT22;22752;51.960;5.886;2023-10-13T06:21:26;18.00;99.90
36800;DHT22;22752;51.960;5.886;2023-10-13T06:24:10;18.00;99.90
36800;DHT22;22752;51.960;5.886;2023-10-13T06:26:55;18.00;99.90
36800;DHT22;22752;51.960;5.886;2023-10-13T06:29:39;18.00;99.90
36800;DHT22;22752;51.960;5.886;2023-10-13T06:32:04;18.10;99.90
36800;DHT22;22752;51.960;5.886;2023-10-13T06:34:39;18.10;99.90
36800;DHT22;22752;51.960;5.886;2023-10-13T06:37:14;18.10;99.90
36800;DHT22;22752;51.960;5.886;2023-10-13T06:39:53;18.10;99.90
36800;DHT22;22752;51.960;5.886;2023-10-13T06:42:28;18.20;99.90
36800;DHT22;22752;51.960;5.886;2023-10-13T06:44:57;18.20;99.90
36800;DHT22;22752;51.960;5.886;2023-10-13T06:47:25;18.20;99.90
36800;DHT22;22752;51.960;5.886;2023-10-13T06:49:53;18.20;99.90
36800;DHT22;22752;51.960;5.886;2023-10-13T06:52:21;18.30;99.90
36800;DHT22;22752;51.960;5.886;2023-10-13T06:54:54;18.30;99.90
36800;DHT22;22752;51.960;5.886;2023-10-13T06:57:29;18.30;99.90
36800;DHT22;22752;51.960;5.886;2023-10-13T07:00:00;18.30;99.90
36800;DHT22;22752;51.960;5.886;2023-10-13T07:02:33;18.30;99.90
36800;DHT22;22752;51.960;5.886;2023-10-13T07:05:01;18.30;99.90
36800;DHT22;22752;51.960;5.886;2023-10-13T07:07:39;18.30;99.90
36800;DHT22;22752;51.960;5.886;2023-10-13T07:10:12;18.30;99.90
36800;DHT22;22752;51.960;5.886;2023-10-13T07:12:40;18.30;99.90
36800;DHT22;22752;51.960;5.886;2023-10-13T07:15:12;18.30;99.90
36800;DHT22;22752;51.960;5.886;2023-10-13T07:17:47;18.30;99.90
36800;DHT22;22752;51.960;5.886;2023-10-13T07:20:20;18.30;99.90
36800;DHT22;22752;51.960;5.886;2023-10-13T07:22:55;18.30;99.90
36800;DHT22;22752;51.960;5.886;2023-10-13T07:25:23;18.30;99.90
36800;DHT22;22752;51.960;5.886;2023-10-13T07:27:51;18.30;99.90
36800;DHT22;22752;51.960;5.886;2023-10-13T07:30:17;18.30;99.90
36800;DHT22;22752;51.960;5.886;2023-10-13T07:32:51;18.40;99.90
36800;DHT22;22752;51.960;5.886;2023-10-13T07:35:19;18.40;99.90
36800;DHT22;22752;51.960;5.886;2023-10-13T07:37:50;18.40;99.90
36800;DHT22;22752;51.960;5.886;2023-10-13T07:40:22;18.40;99.90
36800;DHT22;22752;51.960;5.886;2023-10-13T07:43:08;18.40;99.90
36800;DHT22;22752;51.960;5.886;2023-10-13T07:45:38;18.40;99.90
36800;DHT22;22752;51.960;5.886;2023-10-13T07:48:05;18.40;99.90
36800;DHT22;22752;51.960;5.886;2023-10-13T07:50:47;18.40;99.90
36800;DHT22;22752;51.960;5.886;2023-10-13T07:53:14;18.40;99.90
36800;DHT22;22752;51.960;5.886;2023-10-13T07:55:47;18.40;99.90
36800;DHT22;22752;51.960;5.886;2023-10-13T07:58:13;18.40;99.90
36800;DHT22;22752;51.960;5.886;2023-10-13T08:00:39;18.40;99.90
36800;DHT22;22752;51.960;5.886;2023-10-13T08:03:11;18.50;99.90
36800;DHT22;22752;51.960;5.886;2023-10-13T08:05:40;18.50;99.90
36800;DHT22;22752;51.960;5.886;2023-10-13T08:08:33;18.50;99.90
36800;DHT22;22752;51.960;5.886;2023-10-13T08:11:09;18.40;99.90
36800;DHT22;22752;51.960;5.886;2023-10-13T08:13:54;18.50;99.90
36800;DHT22;22752;51.960;5.886;2023-10-13T08:16:33;18.50;99.90
36800;DHT22;22752;51.960;5.886;2023-10-13T08:19:14;18.60;99.90
36800;DHT22;22752;51.960;5.886;2023-10-13T08:21:42;18.60;99.90
36800;DHT22;22752;51.960;5.886;2023-10-13T08:24:18;18.60;99.90
36800;DHT22;22752;51.960;5.886;2023-10-13T08:27:14;18.70;99.90
36800;DHT22;22752;51.960;5.886;2023-10-13T08:29:44;18.70;99.90
36800;DHT22;22752;51.960;5.886;2023-10-13T08:32:18;18.80;99.90
36800;DHT22;22752;51.960;5.886;2023-10-13T08:34:56;18.90;99.90
36800;DHT22;22752;51.960;5.886;2023-10-13T08:37:22;19.00;99.90
36800;DHT22;22752;51.960;5.886;2023-10-13T08:39:52;19.00;99.90
36800;DHT22;22752;51.960;5.886;2023-10-13T08:42:44;19.10;99.90
36800;DHT22;22752;51.960;5.886;2023-10-13T08:45:12;19.10;99.90
36800;DHT22;22752;51.960;5.886;2023-10-13T08:48:00;19.20;99.90
36800;DHT22;22752;51.960;5.886;2023-10-13T08:50:50;19.30;99.90
36800;DHT22;22752;51.960;5.886;2023-10-13T08:53:27;19.30;99.90
36800;DHT22;22752;51.960;5.886;2023-10-13T08:58:28;19.50;99.90
36800;DHT22;22752;51.960;5.886;2023-10-13T09:01:14;19.50;99.90
36800;DHT22;22752;51.960;5.886;2023-10-13T09:04:03;19.50;99.90
36800;DHT22;22752;51.960;5.886;2023-10-13T09:06:45;19.50;99.90
36800;DHT22;22752;51.960;5.886;2023-10-13T09:09:30;19.50;99.90
36800;DHT22;22752;51.960;5.886;2023-10-13T09:12:14;19.60;99.90
36800;DHT22;22752;51.960;5.886;2023-10-13T09:14:41;19.60;99.90
36800;DHT22;22752;51.960;5.886;2023-10-13T09:17:12;19.70;99.90
36800;DHT22;22752;51.960;5.886;2023-10-13T09:22:26;19.80;99.90
36800;DHT22;22752;51.960;5.886;2023-10-13T09:25:02;19.90;99.90
36800;DHT22;22752;51.960;5.886;2023-10-13T09:27:32;19.90;99.90
36800;DHT22;22752;51.960;5.886;2023-10-13T09:30:04;19.90;99.90
36800;DHT22;22752;51.960;5.886;2023-10-13T09:32:47;19.90;99.90
36800;DHT22;22752;51.960;5.886;2023-10-13T09:35:20;19.80;99.90
36800;DHT22;22752;51.960;5.886;2023-10-13T09:37:52;19.80;99.90
36800;DHT22;22752;51.960;5.886;2023-10-13T09:40:23;19.70;99.90
36800;DHT22;22752;51.960;5.886;2023-10-13T09:43:04;19.70;99.90
36800;DHT22;22752;51.960;5.886;2023-10-13T09:45:40;19.70;99.90
36800;DHT22;22752;51.960;5.886;2023-10-13T09:48:12;19.70;99.90
36800;DHT22;22752;51.960;5.886;2023-10-13T09:50:47;19.70;99.90
36800;DHT22;22752;51.960;5.886;2023-10-13T09:53:17;19.70;99.90
36800;DHT22;22752;51.960;5.886;2023-10-13T09:58:47;19.80;99.90
36800;DHT22;22752;51.960;5.886;2023-10-13T10:01:22;19.80;99.90
36800;DHT22;22752;51.960;5.886;2023-10-13T10:04:16;19.90;99.90
36800;DHT22;22752;51.960;5.886;2023-10-13T10:06:59;19.90;99.90
36800;DHT22;22752;51.960;5.886;2023-10-13T10:09:30;19.90;99.90
36800;DHT22;22752;51.960;5.886;2023-10-13T10:18:21;20.00;99.90
36800;DHT22;22752;51.960;5.886;2023-10-13T10:20:48;20.10;99.90
36800;DHT22;22752;51.960;5.886;2023-10-13T10:23:29;20.10;99.90
36800;DHT22;22752;51.960;5.886;2023-10-13T10:26:12;20.10;99.90
36800;DHT22;22752;51.960;5.886;2023-10-13T10:28:46;20.10;99.90
36800;DHT22;22752;51.960;5.886;2023-10-13T10:31:12;20.10;99.90
36800;DHT22;22752;51.960;5.886;2023-10-13T10:33:39;20.20;99.90
36800;DHT22;22752;51.960;5.886;2023-10-13T10:36:05;20.20;99.90
36800;DHT22;22752;51.960;5.886;2023-10-13T10:38:31;20.10;99.90
36800;DHT22;22752;51.960;5.886;2023-10-13T10:41:04;20.10;99.90
36800;DHT22;22752;51.960;5.886;2023-10-13T10:48:41;20.20;99.90
36800;DHT22;22752;51.960;5.886;2023-10-13T10:51:14;20.30;99.90
36800;DHT22;22752;51.960;5.886;2023-10-13T10:53:47;20.40;99.90
36800;DHT22;22752;51.960;5.886;2023-10-13T10:56:15;20.40;99.90
36800;DHT22;22752;51.960;5.886;2023-10-13T10:59:00;20.40;99.90
36800;DHT22;22752;51.960;5.886;2023-10-13T11:01:27;20.50;99.90
36800;DHT22;22752;51.960;5.886;2023-10-13T11:04:06;20.50;99.90
36800;DHT22;22752;51.960;5.886;2023-10-13T11:06:51;20.60;99.90
36800;DHT22;22752;51.960;5.886;2023-10-13T11:09:30;20.70;99.90
36800;DHT22;22752;51.960;5.886;2023-10-13T11:12:11;20.80;99.90
36800;DHT22;22752;51.960;5.886;2023-10-13T11:14:45;20.90;99.90
36800;DHT22;22752;51.960;5.886;2023-10-13T11:17:22;20.90;99.90
36800;DHT22;22752;51.960;5.886;2023-10-13T11:19:52;21.00;99.90
36800;DHT22;22752;51.960;5.886;2023-10-13T11:22:22;21.00;99.90
36800;DHT22;22752;51.960;5.886;2023-10-13T11:25:07;21.00;99.90
36800;DHT22;22752;51.960;5.886;2023-10-13T11:27:40;21.00;99.90
36800;DHT22;22752;51.960;5.886;2023-10-13T11:30:15;20.90;99.90
36800;DHT22;22752;51.960;5.886;2023-10-13T11:33:10;20.80;99.90
36800;DHT22;22752;51.960;5.886;2023-10-13T11:35:37;20.80;99.90
36800;DHT22;22752;51.960;5.886;2023-10-13T11:38:28;20.80;99.90
36800;DHT22;22752;51.960;5.886;2023-10-13T11:41:02;20.90;99.90
36800;DHT22;22752;51.960;5.886;2023-10-13T11:46:01;20.90;99.90
36800;DHT22;22752;51.960;5.886;2023-10-13T11:48:33;20.90;99.90
36800;DHT22;22752;51.960;5.886;2023-10-13T11:51:05;20.90;99.90
36800;DHT22;22752;51.960;5.886;2023-10-13T11:53:34;20.90;99.90
36800;DHT22;22752;51.960;5.886;2023-10-13T11:56:01;20.90;99.90
36800;DHT22;22752;51.960;5.886;2023-10-13T11:58:26;21.00;99.90
36800;DHT22;22752;51.960;5.886;2023-10-13T12:00:54;21.10;99.90
36800;DHT22;22752;51.960;5.886;2023-10-13T12:03:33;21.20;99.90
36800;DHT22;22752;51.960;5.886;2023-10-13T12:06:18;21.10;99.90
36800;DHT22;22752;51.960;5.886;2023-10-13T12:09:09;21.20;99.90
36800;DHT22;22752;51.960;5.886;2023-10-13T12:11:47;21.30;99.90
36800;DHT22;22752;51.960;5.886;2023-10-13T12:14:17;21.30;99.90
36800;DHT22;22752;51.960;5.886;2023-10-13T12:17:05;21.50;99.90
36800;DHT22;22752;51.960;5.886;2023-10-13T12:19:36;21.60;99.90
36800;DHT22;22752;51.960;5.886;2023-10-13T12:22:04;21.70;99.90
36800;DHT22;22752;51.960;5.886;2023-10-13T12:24:34;21.80;99.90
36800;DHT22;22752;51.960;5.886;2023-10-13T12:27:03;21.80;99.90
36800;DHT22;22752;51.960;5.886;2023-10-13T12:29:47;21.80;99.90
36800;DHT22;22752;51.960;5.886;2023-10-13T12:32:14;21.80;99.90
36800;DHT22;22752;51.960;5.886;2023-10-13T12:34:40;21.80;99.90
36800;DHT22;22752;51.960;5.886;2023-10-13T12:37:25;21.80;99.90
36800;DHT22;22752;51.960;5.886;2023-10-13T12:40:10;21.80;99.90
36800;DHT22;22752;51.960;5.886;2023-10-13T12:42:54;21.90;99.90
36800;DHT22;22752;51.960;5.886;2023-10-13T12:45:42;21.90;99.90
36800;DHT22;22752;51.960;5.886;2023-10-13T12:48:27;22.00;99.90
36800;DHT22;22752;51.960;5.886;2023-10-13T12:51:12;22.00;99.90
36800;DHT22;22752;51.960;5.886;2023-10-13T12:53:51;22.00;99.90
36800;DHT22;22752;51.960;5.886;2023-10-13T12:56:18;22.00;99.90
36800;DHT22;22752;51.960;5.886;2023-10-13T12:58:51;21.90;99.90
36800;DHT22;22752;51.960;5.886;2023-10-13T13:01:26;21.90;99.90
36800;DHT22;22752;51.960;5.886;2023-10-13T13:03:58;21.90;99.90
36800;DHT22;22752;51.960;5.886;2023-10-13T13:06:27;21.90;99.90
36800;DHT22;22752;51.960;5.886;2023-10-13T13:08:59;21.90;99.90
36800;DHT22;22752;51.960;5.886;2023-10-13T13:11:26;21.90;99.90
36800;DHT22;22752;51.960;5.886;2023-10-13T13:13:54;22.00;99.90
36800;DHT22;22752;51.960;5.886;2023-10-13T13:16:19;22.00;99.90
36800;DHT22;22752;51.960;5.886;2023-10-13T13:18:52;22.00;99.90
36800;DHT22;22752;51.960;5.886;2023-10-13T13:21:20;21.90;99.90
36800;DHT22;22752;51.960;5.886;2023-10-13T13:23:49;21.90;99.90
36800;DHT22;22752;51.960;5.886;2023-10-13T13:26:15;22.00;99.90
36800;DHT22;22752;51.960;5.886;2023-10-13T13:28:45;22.00;99.90
36800;DHT22;22752;51.960;5.886;2023-10-13T13:31:16;22.00;99.90
36800;DHT22;22752;51.960;5.886;2023-10-13T13:33:42;22.00;99.90
36800;DHT22;22752;51.960;5.886;2023-10-13T13:36:12;21.90;99.90
36800;DHT22;22752;51.960;5.886;2023-10-13T13:38:40;21.90;99.90
36800;DHT22;22752;51.960;5.886;2023-10-13T13:41:13;21.90;99.90
36800;DHT22;22752;51.960;5.886;2023-10-13T13:43:46;21.90;99.90
36800;DHT22;22752;51.960;5.886;2023-10-13T13:46:25;21.90;99.90
36800;DHT22;22752;51.960;5.886;2023-10-13T13:48:55;21.80;99.90
36800;DHT22;22752;51.960;5.886;2023-10-13T13:51:25;21.70;99.90
36800;DHT22;22752;51.960;5.886;2023-10-13T13:53:58;21.70;99.90
36800;DHT22;22752;51.960;5.886;2023-10-13T13:56:24;21.70;99.90
36800;DHT22;22752;51.960;5.886;2023-10-13T13:58:51;21.60;99.90
36800;DHT22;22752;51.960;5.886;2023-10-13T14:01:17;21.60;99.90
36800;DHT22;22752;51.960;5.886;2023-10-13T14:03:46;21.60;99.90
36800;DHT22;22752;51.960;5.886;2023-10-13T14:06:13;21.60;99.90
36800;DHT22;22752;51.960;5.886;2023-10-13T14:08:43;21.60;99.90
36800;DHT22;22752;51.960;5.886;2023-10-13T14:11:10;21.60;99.90
36800;DHT22;22752;51.960;5.886;2023-10-13T14:13:39;21.60;99.90
36800;DHT22;22752;51.960;5.886;2023-10-13T14:16:19;21.60;99.90
36800;DHT22;22752;51.960;5.886;2023-10-13T14:18:47;21.60;99.90
36800;DHT22;22752;51.960;5.886;2023-10-13T14:21:13;21.60;99.90
36800;DHT22;22752;51.960;5.886;2023-10-13T14:26:17;21.50;99.90
36800;DHT22;22752;51.960;5.886;2023-10-13T14:29:01;21.50;99.90
36800;DHT22;22752;51.960;5.886;2023-10-13T14:31:39;21.40;99.90
36800;DHT22;22752;51.960;5.886;2023-10-13T14:34:06;21.40;99.90
36800;DHT22;22752;51.960;5.886;2023-10-13T14:36:32;21.30;99.90
36800;DHT22;22752;51.960;5.886;2023-10-13T14:39:02;21.30;99.90
36800;DHT22;22752;51.960;5.886;2023-10-13T14:41:37;21.30;99.90
36800;DHT22;22752;51.960;5.886;2023-10-13T14:44:06;21.30;99.90
36800;DHT22;22752;51.960;5.886;2023-10-13T14:46:33;21.30;99.90
36800;DHT22;22752;51.960;5.886;2023-10-13T14:49:02;21.30;99.90
36800;DHT22;22752;51.960;5.886;2023-10-13T14:51:28;21.30;99.90
36800;DHT22;22752;51.960;5.886;2023-10-13T14:53:55;21.20;99.90
36800;DHT22;22752;51.960;5.886;2023-10-13T14:56:25;21.20;99.90
36800;DHT22;22752;51.960;5.886;2023-10-13T14:58:52;21.10;99.90
36800;DHT22;22752;51.960;5.886;2023-10-13T15:01:20;21.10;99.90
36800;DHT22;22752;51.960;5.886;2023-10-13T15:03:53;21.10;99.90
36800;DHT22;22752;51.960;5.886;2023-10-13T15:06:26;21.10;99.90
36800;DHT22;22752;51.960;5.886;2023-10-13T15:08:59;21.10;99.90
36800;DHT22;22752;51.960;5.886;2023-10-13T15:11:26;21.10;99.90
36800;DHT22;22752;51.960;5.886;2023-10-13T15:13:53;21.10;99.90
36800;DHT22;22752;51.960;5.886;2023-10-13T15:16:20;21.00;99.90
36800;DHT22;22752;51.960;5.886;2023-10-13T15:18:47;21.00;99.90
36800;DHT22;22752;51.960;5.886;2023-10-13T15:21:27;21.00;99.90
36800;DHT22;22752;51.960;5.886;2023-10-13T15:24:03;20.90;99.90
36800;DHT22;22752;51.960;5.886;2023-10-13T15:26:30;20.90;99.90
36800;DHT22;22752;51.960;5.886;2023-10-13T15:28:57;20.80;99.90
36800;DHT22;22752;51.960;5.886;2023-10-13T15:31:23;20.80;99.90
36800;DHT22;22752;51.960;5.886;2023-10-13T15:33:55;20.70;99.90
36800;DHT22;22752;51.960;5.886;2023-10-13T15:36:24;20.70;99.90
36800;DHT22;22752;51.960;5.886;2023-10-13T15:38:53;20.60;99.90
36800;DHT22;22752;51.960;5.886;2023-10-13T15:41:23;20.50;99.90
36800;DHT22;22752;51.960;5.886;2023-10-13T15:43:49;20.50;99.90
36800;DHT22;22752;51.960;5.886;2023-10-13T15:46:16;20.40;99.90
36800;DHT22;22752;51.960;5.886;2023-10-13T15:48:42;20.30;99.90
36800;DHT22;22752;51.960;5.886;2023-10-13T15:51:11;20.20;99.90
36800;DHT22;22752;51.960;5.886;2023-10-13T15:53:40;20.20;99.90
36800;DHT22;22752;51.960;5.886;2023-10-13T15:56:06;20.10;99.90
36800;DHT22;22752;51.960;5.886;2023-10-13T15:58:40;20.10;99.90
36800;DHT22;22752;51.960;5.886;2023-10-13T16:01:06;20.00;99.90
36800;DHT22;22752;51.960;5.886;2023-10-13T16:03:34;20.00;99.90
36800;DHT22;22752;51.960;5.886;2023-10-13T16:06:02;20.00;99.90
36800;DHT22;22752;51.960;5.886;2023-10-13T16:08:30;20.00;99.90
36800;DHT22;22752;51.960;5.886;2023-10-13T16:11:06;19.90;99.90
36800;DHT22;22752;51.960;5.886;2023-10-13T16:13:35;19.90;99.90
36800;DHT22;22752;51.960;5.886;2023-10-13T16:16:02;19.90;99.90
36800;DHT22;22752;51.960;5.886;2023-10-13T16:18:28;19.90;99.90
36800;DHT22;22752;51.960;5.886;2023-10-13T16:20:58;19.90;99.90
36800;DHT22;22752;51.960;5.886;2023-10-13T16:23:24;19.90;99.90
36800;DHT22;22752;51.960;5.886;2023-10-13T16:25:51;19.90;99.90
36800;DHT22;22752;51.960;5.886;2023-10-13T16:28:16;20.00;99.90
36800;DHT22;22752;51.960;5.886;2023-10-13T16:30:42;20.00;99.90
36800;DHT22;22752;51.960;5.886;2023-10-13T16:33:08;20.00;99.90
36800;DHT22;22752;51.960;5.886;2023-10-13T16:35:34;20.00;99.90
36800;DHT22;22752;51.960;5.886;2023-10-13T16:37:59;20.00;99.90
36800;DHT22;22752;51.960;5.886;2023-10-13T16:40:32;20.00;99.90
36800;DHT22;22752;51.960;5.886;2023-10-13T16:42:57;20.00;99.90
36800;DHT22;22752;51.960;5.886;2023-10-13T16:45:23;20.00;99.90
36800;DHT22;22752;51.960;5.886;2023-10-13T16:47:51;20.00;99.90